Terminal Aerodrome Forecast
Issued by NWS Jacksonville, FL

Home | Current Version | Previous Version | Text Only | Print | Product List | Glossary On
Versions: 1 2 3 4 5 6 7 8 9 10 11 12 13 14 15 16 17 18 19 20 21 22 23 24 25 26 27 28 29
000
FTUS42 KJAX 301200 AAA
TAFJAX
TAF AMD
KJAX 301258Z 3013/0112 34008KT 5SM BR VCSH OVC005
     FM301600 35006KT P6SM OVC007
     FM301800 36008KT P6SM OVC012
     FM302000 02008KT P6SM SCT012 OVC025
     FM302200 04008KT P6SM SCT025 BKN040
     FM010900 35002KT P6SM SCT250=

USA.gov is the U.S. government's official web portal to all federal, state and local government web resources and services.